Time;durP1;ratioP1;P1;durP2;ratioP2;P2;SDS_P1;SDS_P2;PMS_P1;PMS_P2;Temp;Humidity;BMP_temperature;BMP_pressure;BME280_temperature;BME280_humidity;BME280_pressure;Samples;Min_cycle;Max_cycle;Signal;HPM_P1;HPM_P2
2023/03/11 00:01:36;;;;;;;19.40;11.40;;;;;;;7.13;77.75;97373.64;130704;1256;107502;-79
2023/03/11 00:04:42;;;;;;;21.20;12.40;;;;;;;7.10;78.14;97375.10;130686;1259;107272;-79
2023/03/11 00:07:48;;;;;;;23.20;11.80;;;;;;;7.08;77.96;97373.70;130821;1266;107251;-81
2023/03/11 00:10:57;;;;;;;19.80;11.20;;;;;;;7.06;77.78;97369.84;130662;1259;107540;-78
2023/03/11 00:14:03;;;;;;;20.50;11.60;;;;;;;7.03;77.80;97361.67;130737;1259;107266;-77
2023/03/11 00:17:08;;;;;;;18.80;11.50;;;;;;;6.98;77.82;97358.20;130623;1259;107549;-77
2023/03/11 00:20:19;;;;;;;18.30;10.70;;;;;;;6.92;77.94;97358.52;130709;1257;105631;-78
2023/03/11 00:23:26;;;;;;;23.30;10.80;;;;;;;6.85;78.04;97358.99;130849;1259;107507;-76
2023/03/11 00:26:31;;;;;;;20.20;11.70;;;;;;;6.78;78.03;97359.45;130798;1268;107616;-76
2023/03/11 00:29:38;;;;;;;15.30;8.50;;;;;;;6.69;78.19;97359.88;130757;1259;107658;-76
2023/03/11 00:32:43;;;;;;;15.10;8.30;;;;;;;6.62;78.25;97357.42;130727;1265;107548;-78
2023/03/11 00:35:49;;;;;;;16.90;8.30;;;;;;;6.59;78.58;97353.95;130771;1253;106539;-77
2023/03/11 00:38:55;;;;;;;15.50;8.80;;;;;;;6.57;78.16;97347.52;130758;1259;107537;-78
2023/03/11 00:42:00;;;;;;;15.40;8.60;;;;;;;6.57;78.22;97340.81;130776;1253;107528;-78
2023/03/11 00:45:08;;;;;;;14.80;8.40;;;;;;;6.55;78.35;97338.60;130660;1266;107655;-78
2023/03/11 00:48:15;;;;;;;16.20;8.10;;;;;;;6.52;78.26;97338.14;130765;1253;107570;-77
2023/03/11 00:51:20;;;;;;;14.70;7.70;;;;;;;6.46;78.25;97342.85;130667;1253;107279;-78
2023/03/11 00:54:26;;;;;;;16.00;8.50;;;;;;;6.42;78.21;97339.30;130677;1259;107347;-78
2023/03/11 00:57:31;;;;;;;16.60;8.30;;;;;;;6.37;78.33;97342.54;130640;1262;107478;-77
2023/03/11 01:00:38;;;;;;;15.30;7.40;;;;;;;6.28;78.36;97341.85;130684;1254;107335;-77
2023/03/11 01:03:44;;;;;;;15.50;7.70;;;;;;;6.21;78.38;97336.97;130702;1261;107662;-77
2023/03/11 01:06:50;;;;;;;11.60;7.00;;;;;;;6.16;78.41;97332.75;130728;1256;106556;-78
2023/03/11 01:09:55;;;;;;;13.20;7.20;;;;;;;6.15;78.46;97338.89;130751;1259;107531;-78
2023/03/11 01:13:02;;;;;;;13.30;7.80;;;;;;;6.15;78.50;97335.23;130742;1253;107557;-77
2023/03/11 01:16:08;;;;;;;16.10;9.20;;;;;;;6.13;78.40;97331.06;130659;1259;107628;-75
2023/03/11 01:19:13;;;;;;;18.50;9.40;;;;;;;6.13;78.31;97326.50;130756;1259;107513;-76
2023/03/11 01:22:19;;;;;;;16.50;9.90;;;;;;;6.12;78.65;97321.00;130596;1253;109421;-78
2023/03/11 01:25:25;;;;;;;40.80;26.80;;;;;;;6.08;78.67;97323.91;130699;1261;107533;-77
2023/03/11 01:28:31;;;;;;;30.90;19.40;;;;;;;6.03;78.53;97321.23;130764;1259;107676;-78
2023/03/11 01:31:37;;;;;;;61.90;39.50;;;;;;;5.96;78.39;97321.44;130810;1258;107522;-78
2023/03/11 01:34:43;;;;;;;22.20;13.60;;;;;;;5.87;78.43;97320.11;130764;1268;107683;-78
2023/03/11 01:37:49;;;;;;;17.90;10.30;;;;;;;5.78;78.20;97316.47;130626;1260;107545;-77
2023/03/11 01:40:55;;;;;;;23.50;14.00;;;;;;;5.72;78.54;97316.98;130666;1262;107507;-78
2023/03/11 01:44:00;;;;;;;22.30;13.20;;;;;;;5.71;78.20;97314.08;130566;1259;107478;-78
2023/03/11 01:47:35;;;;;;;37.00;23.30;;;;;;;5.71;78.26;97314.41;130617;1260;107551;-79
2023/03/11 01:50:43;;;;;;;27.30;15.20;;;;;;;5.67;77.81;97312.39;130631;1266;107450;-79
2023/03/11 01:53:50;;;;;;;20.90;11.50;;;;;;;5.63;78.19;97305.67;130633;1266;107579;-79
2023/03/11 01:56:56;;;;;;;17.10;10.80;;;;;;;5.61;78.25;97303.55;130640;1254;107248;-77
2023/03/11 02:00:09;;;;;;;13.40;8.20;;;;;;;5.60;78.42;97302.36;130741;1259;107286;-77
2023/03/11 02:03:23;;;;;;;13.00;6.90;;;;;;;5.60;78.54;97301.43;130617;1253;107416;-78
2023/03/11 02:06:32;;;;;;;12.30;7.20;;;;;;;5.61;78.42;97297.95;130663;1264;107530;-78
2023/03/11 02:09:38;;;;;;;11.50;6.30;;;;;;;5.61;78.32;97296.77;130676;1259;107527;-78
2023/03/11 02:12:45;;;;;;;12.60;5.70;;;;;;;5.61;78.60;97295.34;130483;1260;105691;-78
2023/03/11 02:16:00;;;;;;;11.20;5.70;;;;;;;5.66;78.74;97295.33;130621;1259;107385;-78
2023/03/11 02:19:16;;;;;;;10.50;5.90;;;;;;;5.74;78.73;97292.97;130774;1266;107549;-79
2023/03/11 02:22:23;;;;;;;9.30;5.20;;;;;;;5.81;78.93;97294.39;130691;1262;107499;-76
2023/03/11 02:25:36;;;;;;;12.70;6.30;;;;;;;5.86;78.73;97292.30;130630;1266;107528;-76
2023/03/11 02:28:43;;;;;;;9.60;5.90;;;;;;;5.93;79.15;97291.27;130718;1258;107489;-78
2023/03/11 02:31:50;;;;;;;10.60;5.60;;;;;;;5.96;78.65;97294.38;130609;1259;106431;-78
2023/03/11 02:34:56;;;;;;;10.20;5.80;;;;;;;5.97;78.73;97293.05;130697;1259;107534;-78
2023/03/11 02:38:03;;;;;;;9.00;4.80;;;;;;;5.99;79.24;97290.92;130656;1260;107427;-78
2023/03/11 02:41:10;;;;;;;8.40;4.80;;;;;;;6.01;79.10;97289.23;130689;1260;107517;-78
2023/03/11 02:44:17;;;;;;;8.40;5.20;;;;;;;6.06;79.07;97289.74;130606;1262;107520;-78
2023/03/11 02:47:23;;;;;;;9.60;5.30;;;;;;;6.15;79.03;97287.00;130587;1266;107344;-77
2023/03/11 02:50:33;;;;;;;9.80;5.40;;;;;;;6.23;79.15;97282.23;130638;1259;105676;-78
2023/03/11 02:53:44;;;;;;;8.90;4.90;;;;;;;6.31;79.11;97279.56;130693;1266;107679;-78
2023/03/11 02:56:50;;;;;;;7.80;4.90;;;;;;;6.36;79.27;97273.42;130803;1259;107310;-78
2023/03/11 02:59:56;;;;;;;10.50;5.00;;;;;;;6.40;79.33;97275.59;130750;1258;107338;-78
2023/03/11 03:03:02;;;;;;;7.90;4.80;;;;;;;6.43;79.44;97272.36;130658;1259;107425;-77
2023/03/11 03:06:08;;;;;;;8.30;4.30;;;;;;;6.45;79.47;97268.36;130755;1260;107592;-76
2023/03/11 03:09:14;;;;;;;7.60;4.40;;;;;;;6.48;79.44;97265.35;130554;1258;107213;-80
2023/03/11 03:12:20;;;;;;;7.60;4.50;;;;;;;6.52;79.35;97267.84;130573;1262;107499;-77
2023/03/11 03:15:27;;;;;;;9.50;4.60;;;;;;;6.58;79.62;97268.59;130589;1266;107532;-78
2023/03/11 03:18:33;;;;;;;8.00;4.50;;;;;;;6.65;79.60;97267.34;130565;1260;107566;-79
2023/03/11 03:21:39;;;;;;;9.60;5.10;;;;;;;6.70;79.62;97260.25;130603;1260;106857;-79
2023/03/11 03:24:45;;;;;;;7.60;4.60;;;;;;;6.73;79.37;97260.63;130630;1268;107755;-78
2023/03/11 03:27:51;;;;;;;7.80;4.40;;;;;;;6.73;79.32;97263.73;130608;1268;107426;-79
2023/03/11 03:31:02;;;;;;;7.00;4.50;;;;;;;6.73;79.43;97262.09;130483;1268;107430;-78
2023/03/11 03:34:09;;;;;;;7.90;4.30;;;;;;;6.73;79.34;97266.36;130618;1258;107494;-77
2023/03/11 03:37:15;;;;;;;8.50;3.70;;;;;;;6.71;79.61;97266.98;130675;1259;107438;-78
2023/03/11 03:40:22;;;;;;;6.70;3.70;;;;;;;6.71;79.71;97262.70;130664;1259;107519;-78
2023/03/11 03:43:28;;;;;;;8.00;4.40;;;;;;;6.72;79.24;97266.08;130675;1259;107472;-78
2023/03/11 03:46:34;;;;;;;6.40;4.30;;;;;;;6.76;79.72;97259.77;130489;1254;107531;-78
2023/03/11 03:49:41;;;;;;;8.90;4.60;;;;;;;6.79;79.42;97267.55;130594;1259;107545;-79
2023/03/11 03:52:47;;;;;;;8.10;4.30;;;;;;;6.82;79.44;97268.75;130748;1266;107892;-77
2023/03/11 03:55:53;;;;;;;7.70;4.30;;;;;;;6.84;79.71;97265.53;130514;1262;107802;-77
2023/03/11 03:58:59;;;;;;;7.20;4.70;;;;;;;6.84;79.33;97266.59;130729;1260;107456;-78
2023/03/11 04:02:08;;;;;;;9.20;4.70;;;;;;;6.82;79.54;97270.21;130622;1269;107436;-78
2023/03/11 04:05:14;;;;;;;6.20;4.00;;;;;;;6.81;79.78;97270.55;130765;1267;107546;-78
2023/03/11 04:08:21;;;;;;;8.20;3.90;;;;;;;6.79;79.83;97267.80;130818;1261;107451;-78
2023/03/11 04:11:27;;;;;;;7.20;4.10;;;;;;;6.81;79.65;97264.67;130655;1259;108088;-79
2023/03/11 04:14:33;;;;;;;6.50;4.30;;;;;;;6.85;79.93;97266.13;130692;1261;107716;-78
2023/03/11 04:17:39;;;;;;;7.30;4.70;;;;;;;6.89;79.64;97271.04;130586;1259;107642;-79
2023/03/11 04:20:46;;;;;;;6.80;4.50;;;;;;;6.93;79.86;97271.69;130639;1260;107567;-78
2023/03/11 04:23:53;;;;;;;7.50;4.50;;;;;;;6.93;79.68;97271.73;130748;1260;106464;-78
2023/03/11 04:27:00;;;;;;;7.70;4.60;;;;;;;6.92;79.49;97261.83;130667;1257;107544;-79
2023/03/11 04:30:08;;;;;;;7.20;4.60;;;;;;;6.91;79.71;97267.58;130555;1267;107432;-77
2023/03/11 04:33:14;;;;;;;7.10;4.20;;;;;;;6.91;79.81;97267.94;130579;1261;107209;-78
2023/03/11 04:36:20;;;;;;;7.80;3.90;;;;;;;6.91;79.89;97267.69;130397;1255;233173;-78
2023/03/11 04:39:27;;;;;;;5.20;3.90;;;;;;;6.93;79.75;97267.41;130559;1270;107437;-79
2023/03/11 04:42:33;;;;;;;6.60;4.70;;;;;;;6.97;79.85;97264.56;130688;1267;107442;-79
2023/03/11 04:45:42;;;;;;;6.30;4.10;;;;;;;6.99;79.88;97261.58;130751;1267;107459;-78
2023/03/11 04:48:50;;;;;;;6.50;4.20;;;;;;;7.03;79.85;97265.70;130681;1267;107504;-76
2023/03/11 04:51:56;;;;;;;7.00;4.40;;;;;;;7.06;79.82;97265.13;130753;1258;107432;-77
2023/03/11 04:55:02;;;;;;;7.10;4.70;;;;;;;7.06;79.79;97268.96;130748;1259;107446;-77
2023/03/11 04:58:10;;;;;;;8.70;5.00;;;;;;;7.04;80.02;97262.69;130561;1266;107370;-77
2023/03/11 05:01:16;;;;;;;8.70;5.50;;;;;;;7.03;79.77;97267.20;130739;1265;107472;-76
2023/03/11 05:04:23;;;;;;;7.30;4.70;;;;;;;7.00;80.08;97265.86;130754;1259;108294;-77
2023/03/11 05:07:29;;;;;;;7.00;4.60;;;;;;;6.98;79.97;97267.16;130725;1258;107425;-77
2023/03/11 05:10:35;;;;;;;6.00;4.50;;;;;;;7.00;80.14;97269.98;130729;1258;107580;-78
2023/03/11 05:13:44;;;;;;;7.40;4.80;;;;;;;7.04;80.19;97269.61;130568;1257;107550;-79
2023/03/11 05:16:50;;;;;;;9.50;5.10;;;;;;;7.09;80.37;97269.28;130518;1260;107532;-77
2023/03/11 05:19:56;;;;;;;7.90;5.60;;;;;;;7.13;80.27;97267.13;130630;1257;107442;-77
2023/03/11 05:23:06;;;;;;;8.20;5.60;;;;;;;7.15;80.10;97266.17;130645;1266;107465;-76
2023/03/11 05:26:13;;;;;;;8.70;5.60;;;;;;;7.16;80.43;97265.36;130561;1257;107251;-78
2023/03/11 05:29:21;;;;;;;8.20;5.60;;;;;;;7.18;80.22;97272.39;130637;1266;107530;-76
2023/03/11 05:32:27;;;;;;;7.10;5.00;;;;;;;7.16;80.42;97275.00;130564;1257;107413;-79
2023/03/11 05:35:33;;;;;;;8.00;5.20;;;;;;;7.14;80.56;97272.34;130609;1270;107398;-78
2023/03/11 05:38:39;;;;;;;9.10;6.10;;;;;;;7.17;80.46;97273.94;130585;1261;107484;-79
2023/03/11 05:41:44;;;;;;;9.70;7.10;;;;;;;7.21;80.53;97272.98;130542;1269;107557;-78
2023/03/11 05:44:50;;;;;;;67.20;27.40;;;;;;;7.27;80.94;97271.64;130536;1257;107603;-79
2023/03/11 05:47:56;;;;;;;117.90;48.30;;;;;;;7.31;80.75;97272.21;130606;1257;107446;-76
2023/03/11 05:51:08;;;;;;;68.50;30.00;;;;;;;7.34;81.03;97271.11;130735;1257;106604;-77
2023/03/11 05:54:14;;;;;;;81.90;34.60;;;;;;;7.36;80.86;97274.73;130564;1261;107506;-78
2023/03/11 05:57:21;;;;;;;46.90;21.10;;;;;;;7.37;81.50;97275.18;130543;1266;107383;-79
2023/03/11 06:00:28;;;;;;;114.20;37.20;;;;;;;7.37;81.56;97276.33;130737;1269;108500;-77
2023/03/11 06:03:36;;;;;;;193.70;62.40;;;;;;;7.39;81.50;97278.53;130615;1266;107459;-77
2023/03/11 06:06:43;;;;;;;66.80;26.80;;;;;;;7.44;81.76;97275.17;130579;1259;107542;-79
2023/03/11 06:09:51;;;;;;;115.60;46.30;;;;;;;7.49;81.95;97269.98;130684;1257;107471;-78
2023/03/11 06:12:57;;;;;;;124.70;57.00;;;;;;;7.54;82.02;97276.64;130578;1257;107544;-77
2023/03/11 06:16:10;;;;;;;26.50;14.60;;;;;;;7.56;82.21;97278.30;130605;1254;105610;-78
2023/03/11 06:19:16;;;;;;;19.20;10.90;;;;;;;7.57;82.04;97283.48;130770;1257;107360;-79
2023/03/11 06:22:25;;;;;;;12.60;9.30;;;;;;;7.57;82.11;97287.36;130770;1257;107473;-78
2023/03/11 06:25:30;;;;;;;14.60;10.60;;;;;;;7.56;82.37;97290.58;130720;1257;106655;-77
2023/03/11 06:28:36;;;;;;;26.20;18.30;;;;;;;7.56;82.60;97292.38;130574;1260;107631;-78
2023/03/11 06:31:42;;;;;;;53.50;35.80;;;;;;;7.58;82.45;97299.69;130628;1260;107756;-79
2023/03/11 06:34:53;;;;;;;261.30;82.30;;;;;;;7.61;82.53;97302.19;130692;1260;107340;-77
2023/03/11 06:38:00;;;;;;;393.40;115.20;;;;;;;7.62;82.56;97308.90;130931;1258;107438;-79
2023/03/11 06:41:07;;;;;;;438.30;132.40;;;;;;;7.60;82.99;97307.89;130684;1254;107252;-79
2023/03/11 06:44:13;;;;;;;363.50;100.10;;;;;;;7.55;82.97;97306.84;130560;1258;106794;-78
2023/03/11 06:47:20;;;;;;;171.30;48.80;;;;;;;7.50;83.00;97309.25;130500;1267;107594;-76
2023/03/11 06:50:27;;;;;;;309.30;83.50;;;;;;;7.50;82.84;97317.21;130552;1259;107358;-77
2023/03/11 06:53:33;;;;;;;280.80;84.40;;;;;;;7.53;82.88;97323.41;130701;1257;107502;-79
2023/03/11 06:56:39;;;;;;;567.10;192.30;;;;;;;7.54;82.68;97323.04;130666;1257;108463;-79
2023/03/11 06:59:46;;;;;;;262.10;81.80;;;;;;;7.52;82.74;97335.17;130575;1258;108528;-78
2023/03/11 07:02:53;;;;;;;832.80;274.30;;;;;;;7.45;82.45;97338.19;130590;1257;107402;-82
2023/03/11 07:06:00;;;;;;;775.90;260.70;;;;;;;7.39;82.65;97345.21;130511;1267;107217;-80
2023/03/11 07:09:07;;;;;;;920.90;361.40;;;;;;;7.32;82.46;97352.27;130544;1257;109120;-79
2023/03/11 07:12:14;;;;;;;198.70;84.00;;;;;;;7.26;82.51;97353.62;130707;1259;108288;-80
2023/03/11 07:15:20;;;;;;;73.10;41.60;;;;;;;7.19;82.60;97363.16;130812;1258;108673;-80
2023/03/11 07:18:26;;;;;;;43.10;25.30;;;;;;;7.17;82.52;97365.27;130777;1258;106452;-80
2023/03/11 07:21:32;;;;;;;38.20;26.60;;;;;;;7.15;82.49;97365.60;130629;1258;108682;-78
2023/03/11 07:24:38;;;;;;;51.50;37.10;;;;;;;7.15;82.33;97368.25;130689;1257;108913;-77
2023/03/11 07:27:44;;;;;;;20.60;17.60;;;;;;;7.15;82.63;97374.58;130737;1257;108563;-78
2023/03/11 07:30:50;;;;;;;10.70;8.80;;;;;;;7.13;82.59;97378.45;130666;1254;106804;-79
2023/03/11 07:33:56;;;;;;;8.20;6.70;;;;;;;7.10;82.51;97380.03;130696;1267;107527;-79
2023/03/11 07:37:03;;;;;;;9.10;7.60;;;;;;;7.10;82.37;97385.30;130816;1257;108778;-77
2023/03/11 07:40:11;;;;;;;12.90;10.20;;;;;;;7.17;82.58;97385.84;130816;1257;107476;-77
2023/03/11 07:43:17;;;;;;;9.20;7.90;;;;;;;7.21;82.78;97393.96;130785;1254;107309;-81
2023/03/11 07:46:24;;;;;;;19.20;16.50;;;;;;;7.12;82.55;97393.21;130548;1258;107588;-79
2023/03/11 07:49:30;;;;;;;10.10;9.10;;;;;;;7.11;82.70;97394.20;130594;1254;107578;-79
2023/03/11 07:52:35;;;;;;;7.00;5.80;;;;;;;7.10;82.67;97401.04;130609;1267;106773;-79
2023/03/11 07:55:41;;;;;;;218.80;78.00;;;;;;;7.09;82.70;97403.24;130651;1257;106925;-77
2023/03/11 07:58:47;;;;;;;132.80;43.70;;;;;;;7.07;82.73;97407.08;130747;1253;107548;-77
2023/03/11 08:01:53;;;;;;;343.00;103.10;;;;;;;7.02;82.90;97411.09;130530;1254;107709;-78
2023/03/11 08:04:58;;;;;;;159.90;49.50;;;;;;;7.03;82.84;97416.64;130687;1257;107579;-80
2023/03/11 08:08:04;;;;;;;154.60;43.00;;;;;;;7.02;82.63;97422.98;130692;1259;106691;-80
2023/03/11 08:11:11;;;;;;;395.50;114.10;;;;;;;7.04;82.14;97426.94;130618;1257;106680;-80
2023/03/11 08:14:17;;;;;;;118.40;34.00;;;;;;;7.10;82.35;97438.20;130622;1254;107596;-80
2023/03/11 08:17:23;;;;;;;363.10;99.20;;;;;;;7.11;81.88;97441.71;130632;1257;107571;-78
2023/03/11 08:20:28;;;;;;;344.90;107.60;;;;;;;7.17;82.23;97448.55;130623;1257;107589;-77
2023/03/11 08:23:34;;;;;;;466.60;190.60;;;;;;;7.27;82.20;97455.21;130673;1257;106991;-78
2023/03/11 08:26:40;;;;;;;230.00;90.80;;;;;;;7.29;81.50;97460.12;130595;1259;107654;-80
2023/03/11 08:29:46;;;;;;;255.20;113.00;;;;;;;7.25;80.94;97466.27;130918;1254;109003;-84
2023/03/11 08:32:52;;;;;;;86.50;39.50;;;;;;;7.20;81.04;97469.04;130951;1254;108117;-78
2023/03/11 08:35:58;;;;;;;113.00;58.30;;;;;;;7.08;80.91;97468.83;130689;1258;108256;-78
2023/03/11 08:39:04;;;;;;;75.50;39.70;;;;;;;6.93;80.61;97472.36;130604;1255;107258;-77
2023/03/11 08:42:10;;;;;;;53.60;31.90;;;;;;;6.77;80.96;97483.48;130563;1260;108657;-79
2023/03/11 08:45:16;;;;;;;183.60;98.10;;;;;;;6.63;80.89;97490.30;130775;1268;108779;-80
2023/03/11 08:48:22;;;;;;;171.20;110.10;;;;;;;6.51;81.01;97498.15;130694;1259;107546;-78
2023/03/11 08:51:29;;;;;;;49.20;30.20;;;;;;;6.45;81.25;97505.97;130737;1255;107289;-80
2023/03/11 08:54:35;;;;;;;23.00;13.70;;;;;;;6.38;81.44;97514.45;130668;1259;108714;-79
2023/03/11 08:57:41;;;;;;;13.00;8.00;;;;;;;6.32;81.32;97525.11;130820;1254;107414;-79
2023/03/11 09:00:47;;;;;;;13.50;8.00;;;;;;;6.17;81.50;97528.79;130753;1258;107421;-80
2023/03/11 09:03:52;;;;;;;8.10;6.60;;;;;;;6.03;81.42;97536.14;130825;1257;107544;-79
2023/03/11 09:06:58;;;;;;;10.50;7.20;;;;;;;5.85;81.79;97550.20;130765;1266;107536;-77
2023/03/11 09:10:06;;;;;;;18.20;11.90;;;;;;;5.70;82.12;97550.06;130777;1257;108717;-78
2023/03/11 09:13:12;;;;;;;20.40;12.40;;;;;;;5.68;82.18;97559.68;130776;1258;107556;-80
2023/03/11 09:16:20;;;;;;;24.20;14.10;;;;;;;5.62;81.87;97567.99;130818;1260;107644;-76
2023/03/11 09:19:26;;;;;;;20.30;12.40;;;;;;;5.63;82.13;97574.89;130787;1257;107628;-76
2023/03/11 09:22:31;;;;;;;22.40;13.40;;;;;;;5.58;82.10;97577.48;130658;1257;106771;-83
2023/03/11 09:25:37;;;;;;;17.20;10.70;;;;;;;5.42;82.08;97601.02;130727;1257;107545;-80
2023/03/11 09:28:47;;;;;;;12.70;8.90;;;;;;;4.88;82.55;97616.48;130665;1259;108724;-82
2023/03/11 09:31:53;;;;;;;11.40;8.20;;;;;;;4.35;83.64;97625.58;130653;1253;107358;-78
2023/03/11 09:35:02;;;;;;;11.60;8.20;;;;;;;4.03;84.72;97638.56;130589;1257;107549;-77
2023/03/11 09:38:08;;;;;;;28.30;18.00;;;;;;;3.78;85.64;97644.92;130621;1253;109493;-80
2023/03/11 09:41:25;;;;;;;13.10;8.80;;;;;;;3.65;85.84;97656.89;130746;1257;107547;-82
2023/03/11 09:44:37;;;;;;;24.30;10.90;;;;;;;3.39;86.62;97662.22;130662;1260;107511;-77
2023/03/11 09:47:48;;;;;;;12.30;7.00;;;;;;;3.26;87.01;97667.94;130671;1257;107598;-75
2023/03/11 09:50:59;;;;;;;10.00;6.70;;;;;;;3.19;87.09;97672.05;130640;1259;107659;-77
2023/03/11 09:54:09;;;;;;;8.10;6.00;;;;;;;3.11;87.32;97682.50;130688;1254;107538;-76
2023/03/11 09:57:19;;;;;;;5.90;4.90;;;;;;;2.96;87.74;97693.19;130672;1270;107667;-78
2023/03/11 10:00:25;;;;;;;5.40;4.70;;;;;;;2.75;88.16;97700.59;130583;1253;108654;-81
2023/03/11 10:03:35;;;;;;;6.70;5.50;;;;;;;2.55;88.57;97720.80;130779;1257;108727;-81
2023/03/11 10:06:44;;;;;;;7.60;5.90;;;;;;;2.40;89.41;97723.43;130888;1255;108811;-82
2023/03/11 10:09:55;;;;;;;8.50;5.60;;;;;;;2.31;89.89;97731.19;130981;1266;107582;-83
2023/03/11 10:13:11;;;;;;;8.60;6.10;;;;;;;2.23;89.96;97747.33;131041;1257;107095;-84
2023/03/11 10:16:25;;;;;;;9.40;6.10;;;;;;;2.13;89.99;97765.76;130814;1257;107249;-79
2023/03/11 10:19:43;;;;;;;8.30;6.50;;;;;;;2.12;89.34;97774.66;130672;1257;106605;-79
2023/03/11 10:22:58;;;;;;;8.30;6.20;;;;;;;2.03;89.37;97789.20;130789;1260;108643;-82
2023/03/11 10:26:13;;;;;;;7.50;5.80;;;;;;;1.84;89.56;97795.70;130712;1257;108684;-80
2023/03/11 10:29:23;;;;;;;8.80;6.70;;;;;;;1.69;90.13;97800.27;130694;1257;107534;-78
2023/03/11 10:32:35;;;;;;;8.40;6.30;;;;;;;1.62;90.31;97808.90;130595;1253;108694;-77
2023/03/11 10:35:44;;;;;;;7.40;5.30;;;;;;;1.61;90.37;97814.27;130590;1254;107540;-76
2023/03/11 10:38:52;;;;;;;15.40;8.60;;;;;;;1.58;90.53;97822.20;130676;1257;107626;-77
2023/03/11 10:42:00;;;;;;;10.70;7.30;;;;;;;1.60;90.80;97839.37;130775;1254;107564;-78
2023/03/11 10:45:13;;;;;;;11.10;6.80;;;;;;;1.48;90.75;97854.07;130608;1257;107544;-77
2023/03/11 10:48:21;;;;;;;11.50;7.30;;;;;;;1.44;91.36;97852.36;130513;1253;107374;-75
2023/03/11 10:51:32;;;;;;;9.60;6.90;;;;;;;1.44;91.70;97865.64;130637;1253;107249;-80
2023/03/11 10:54:44;;;;;;;10.80;7.40;;;;;;;1.52;91.60;97875.77;130708;1259;107570;-79
2023/03/11 10:57:48;;;;;;;;;;;;;;;1.55;91.58;97876.33;130694;1254;107547;-78
2023/03/11 11:01:13;;;;;;;14.10;9.40;;;;;;;1.55;91.69;97886.30;130541;1256;107398;-80
2023/03/11 11:04:36;;;;;;;9.90;6.70;;;;;;;1.45;91.53;97889.00;130571;1254;106471;-78
2023/03/11 11:07:43;;;;;;;12.40;8.50;;;;;;;1.44;91.40;97901.27;130595;1258;107576;-77
2023/03/11 11:10:53;;;;;;;10.40;7.10;;;;;;;1.44;91.55;97910.41;130573;1260;108786;-76
2023/03/11 11:14:00;;;;;;;10.30;6.70;;;;;;;1.42;91.75;97924.23;130607;1259;107607;-77
2023/03/11 11:17:06;;;;;;;10.50;6.80;;;;;;;1.31;91.85;97931.56;130709;1255;106837;-77
2023/03/11 11:20:19;;;;;;;11.20;7.60;;;;;;;1.24;93.02;97931.07;130675;1258;107548;-76
2023/03/11 11:23:31;;;;;;;13.20;7.80;;;;;;;1.23;93.62;97938.69;130641;1258;107873;-78
2023/03/11 11:26:37;;;;;;;10.60;7.50;;;;;;;1.13;93.61;97952.96;130584;1259;107451;-79
2023/03/11 11:29:43;;;;;;;11.30;7.80;;;;;;;1.04;92.96;97958.44;130576;1254;107372;-75
2023/03/11 11:32:52;;;;;;;12.40;8.20;;;;;;;0.99;93.20;97962.72;130554;1258;107563;-76
2023/03/11 11:36:01;;;;;;;11.70;7.60;;;;;;;1.03;93.36;97972.84;130579;1257;106478;-77
2023/03/11 11:39:18;;;;;;;14.00;9.20;;;;;;;1.10;93.06;97982.27;130623;1259;105687;-78
2023/03/11 11:42:28;;;;;;;14.90;9.00;;;;;;;1.20;92.83;97991.51;130640;1257;107565;-76
2023/03/11 11:45:39;;;;;;;12.10;8.50;;;;;;;1.25;92.88;97996.69;130694;1259;107416;-80
2023/03/11 11:48:50;;;;;;;13.60;8.20;;;;;;;1.15;92.31;98003.52;130631;1257;109169;-78
2023/03/11 11:52:02;;;;;;;21.90;12.90;;;;;;;1.09;92.08;98024.50;130623;1257;107574;-77
2023/03/11 11:55:07;;;;;;;;;;;;;;;0.97;91.76;98024.20;130728;1257;107468;-78
2023/03/11 11:58:13;;;;;;;20.50;12.20;;;;;;;0.93;92.10;98028.59;130692;1257;107608;-75
2023/03/11 12:01:24;;;;;;;19.60;11.80;;;;;;;0.89;92.98;98033.23;130860;1257;107424;-77
2023/03/11 12:04:50;;;;;;;24.00;10.60;;;;;;;0.82;93.12;98036.27;130815;1257;107498;-77
2023/03/11 12:08:14;;;;;;;16.50;9.20;;;;;;;0.63;93.20;98057.52;130588;1257;107568;-76
2023/03/11 12:11:24;;;;;;;23.30;10.70;;;;;;;0.55;93.54;98068.41;130644;1253;107940;-76
2023/03/11 12:14:35;;;;;;;15.70;9.30;;;;;;;0.60;93.73;98076.22;130639;1254;107631;-75
2023/03/11 12:17:45;;;;;;;11.50;7.40;;;;;;;0.58;92.68;98087.59;130598;1257;107570;-77
2023/03/11 12:20:54;;;;;;;14.80;8.70;;;;;;;0.59;92.42;98093.23;130708;1257;107515;-77
2023/03/11 12:24:15;;;;;;;12.40;8.70;;;;;;;0.63;91.93;98101.23;130650;1258;107556;-76
2023/03/11 12:27:26;;;;;;;13.00;9.10;;;;;;;0.61;92.09;98113.55;130701;1259;107635;-77
2023/03/11 12:30:36;;;;;;;12.30;7.40;;;;;;;0.50;93.20;98122.98;130802;1257;108682;-74
2023/03/11 12:33:44;;;;;;;12.00;8.30;;;;;;;0.37;95.30;98129.02;130774;1257;107530;-75
2023/03/11 12:36:52;;;;;;;12.90;7.70;;;;;;;0.32;96.53;98131.61;130625;1259;107636;-75
2023/03/11 12:39:58;;;;;;;13.40;8.00;;;;;;;0.25;96.69;98142.17;130832;1254;107553;-74
2023/03/11 12:43:03;;;;;;;10.50;7.10;;;;;;;0.25;97.20;98161.40;130781;1257;107565;-76
2023/03/11 12:46:11;;;;;;;13.50;7.70;;;;;;;0.27;96.90;98159.99;130638;1258;107621;-75
2023/03/11 12:49:24;;;;;;;13.90;8.80;;;;;;;0.30;96.64;98174.29;130568;1254;108365;-72
2023/03/11 12:52:53;;;;;;;13.10;8.40;;;;;;;0.28;96.72;98187.02;130552;1258;107559;-72
2023/03/11 12:56:06;;;;;;;31.70;15.50;;;;;;;0.37;98.12;98191.11;130740;1258;107578;-74
2023/03/11 12:59:37;;;;;;;20.10;11.60;;;;;;;0.50;98.65;98190.28;130546;1259;107562;-75
2023/03/11 13:03:08;;;;;;;12.50;8.40;;;;;;;0.57;96.63;98204.50;130551;1258;107485;-74
2023/03/11 13:06:41;;;;;;;12.00;7.60;;;;;;;0.58;96.56;98211.61;130484;1258;107547;-74
2023/03/11 13:09:59;;;;;;;12.30;8.40;;;;;;;0.63;96.18;98230.23;130268;1253;106569;-75
2023/03/11 13:13:29;;;;;;;15.20;10.00;;;;;;;0.59;95.30;98234.39;130759;1257;107500;-74
2023/03/11 13:16:39;;;;;;;14.90;9.30;;;;;;;0.57;95.07;98243.89;130837;1257;108750;-72
2023/03/11 13:19:56;;;;;;;19.20;10.20;;;;;;;0.51;94.96;98254.02;130692;1257;107387;-73
2023/03/11 13:23:23;;;;;;;15.40;9.20;;;;;;;0.49;94.58;98265.48;130622;1257;107469;-72
2023/03/11 13:26:40;;;;;;;19.40;10.60;;;;;;;0.44;93.62;98270.25;130660;1253;107535;-72
2023/03/11 13:29:58;;;;;;;16.40;9.50;;;;;;;0.31;93.25;98276.77;130572;1257;107514;-72
2023/03/11 13:33:26;;;;;;;15.20;9.70;;;;;;;0.23;92.75;98289.62;130525;1256;107350;-71
2023/03/11 13:36:55;;;;;;;15.90;9.70;;;;;;;0.19;92.66;98305.81;130588;1257;107628;-73
2023/03/11 13:40:12;;;;;;;17.40;10.10;;;;;;;0.20;92.80;98313.13;130726;1257;107473;-73
2023/03/11 13:43:21;;;;;;;30.20;12.90;;;;;;;0.21;91.93;98324.54;130508;1258;107449;-77
2023/03/11 13:46:31;;;;;;;15.80;8.70;;;;;;;0.23;91.39;98333.29;130500;1254;106076;-77
2023/03/11 13:49:43;;;;;;;12.10;7.50;;;;;;;0.22;89.51;98352.27;130755;1258;107587;-76
2023/03/11 13:52:52;;;;;;;;;;;;;;;0.24;88.60;98358.37;130564;1258;108676;-77
2023/03/11 13:55:58;;;;;;;31.10;14.80;;;;;;;0.29;88.73;98367.27;130623;1258;107382;-77
2023/03/11 14:02:38;;;;;;;14.30;8.10;;;;;;;0.50;87.29;98380.30;127380;1291;635936;-77
2023/03/11 14:05:48;;;;;;;13.80;8.60;;;;;;;0.60;86.58;98389.73;130392;1259;107547;-79
2023/03/11 14:08:57;;;;;;;10.60;6.80;;;;;;;0.68;85.36;98404.52;130580;1280;107388;-78
2023/03/11 14:12:07;;;;;;;10.20;6.50;;;;;;;0.62;84.28;98400.93;130427;1260;107472;-77
2023/03/11 14:15:17;;;;;;;11.70;7.10;;;;;;;0.56;83.73;98409.95;130678;1250;283026;-77
2023/03/11 14:18:32;;;;;;;11.60;6.70;;;;;;;0.55;83.78;98423.35;131099;1273;107533;-77
2023/03/11 14:21:41;;;;;;;12.60;6.60;;;;;;;0.54;83.20;98424.00;131064;1273;107492;-77
2023/03/11 14:24:49;;;;;;;10.20;6.30;;;;;;;0.53;82.72;98437.18;131029;1250;109432;-79
2023/03/11 14:27:58;;;;;;;9.60;5.20;;;;;;;0.64;83.53;98439.91;131333;1252;107157;-79
2023/03/11 14:31:05;;;;;;;28.60;11.30;;;;;;;0.75;83.41;98450.80;131387;1251;107574;-79